Time;durP1;ratioP1;P1;durP2;ratioP2;P2;SDS_P1;SDS_P2;PMS_P1;PMS_P2;Temp;Humidity;BMP_temperature;BMP_pressure;BME280_temperature;BME280_humidity;BME280_pressure;Samples;Min_cycle;Max_cycle;Signal;HPM_P1;HPM_P2
2022/03/22 00:00:08;;;;;;;33.60;20.95;;;5.80;99.90;;;;;;6239018;22;20023;-57
2022/03/22 00:02:34;;;;;;;33.42;22.10;;;5.80;99.90;;;;;;6267072;22;20442;-65
2022/03/22 00:04:59;;;;;;;34.28;21.08;;;5.80;99.90;;;;;;6266314;22;20023;-61
2022/03/22 00:07:27;;;;;;;36.08;21.63;;;5.80;99.90;;;;;;6267231;22;20026;-64
2022/03/22 00:09:53;;;;;;;36.40;23.50;;;5.80;99.90;;;;;;6267078;22;20020;-65
2022/03/22 00:12:19;;;;;;;33.92;21.63;;;5.80;99.90;;;;;;6266316;22;20023;-63
2022/03/22 00:14:48;;;;;;;36.03;22.42;;;5.70;99.90;;;;;;6267153;22;20391;-65
2022/03/22 00:17:14;;;;;;;31.33;22.02;;;5.70;99.90;;;;;;6267241;22;20442;-73
2022/03/22 00:19:39;;;;;;;42.53;24.00;;;5.70;99.90;;;;;;6266422;22;20015;-69
2022/03/22 00:22:05;;;;;;;36.08;22.45;;;5.70;99.90;;;;;;6266408;22;20019;-61
2022/03/22 00:24:31;;;;;;;37.03;21.42;;;5.70;99.90;;;;;;6266262;22;20016;-71
2022/03/22 00:26:57;;;;;;;36.90;22.45;;;5.60;99.90;;;;;;6266476;22;20059;-64
2022/03/22 00:29:22;;;;;;;34.05;20.70;;;5.60;99.90;;;;;;6266095;22;20028;-68
2022/03/22 00:31:48;;;;;;;45.88;23.35;;;5.70;99.90;;;;;;6266244;22;20051;-57
2022/03/22 00:34:14;;;;;;;35.70;21.00;;;5.60;99.90;;;;;;6266870;22;20020;-57
2022/03/22 00:36:41;;;;;;;40.08;21.33;;;5.50;99.90;;;;;;6265698;22;20049;-57
2022/03/22 00:39:07;;;;;;;41.05;24.52;;;5.50;99.90;;;;;;6265338;22;20126;-58
2022/03/22 00:41:33;;;;;;;43.88;23.42;;;5.60;99.90;;;;;;6266630;22;20103;-58
2022/03/22 00:43:58;;;;;;;32.95;20.73;;;5.50;99.90;;;;;;6266305;22;20062;-58
2022/03/22 00:46:24;;;;;;;42.30;23.17;;;5.50;99.90;;;;;;6266220;22;20019;-57
2022/03/22 00:48:50;;;;;;;39.67;21.65;;;5.50;99.90;;;;;;6265882;22;20020;-58
2022/03/22 00:51:16;;;;;;;41.03;22.65;;;5.50;99.90;;;;;;6239415;22;20446;-57
2022/03/22 00:53:42;;;;;;;33.90;21.27;;;5.50;99.90;;;;;;6266726;22;20027;-59
2022/03/22 00:56:08;;;;;;;37.60;20.55;;;5.40;99.90;;;;;;6238302;22;20023;-57
2022/03/22 00:58:34;;;;;;;35.67;21.13;;;5.30;99.90;;;;;;6266198;22;20043;-57
2022/03/22 01:01:01;;;;;;;34.10;21.95;;;5.30;99.90;;;;;;6265444;22;20327;-57
2022/03/22 01:03:28;;;;;;;38.63;21.55;;;5.30;99.90;;;;;;6266586;22;20536;-57
2022/03/22 01:05:55;;;;;;;32.72;20.25;;;5.30;99.90;;;;;;6266493;22;20055;-57
2022/03/22 01:08:21;;;;;;;37.63;21.58;;;5.30;99.90;;;;;;6268180;22;20020;-59
2022/03/22 01:10:52;;;;;;;37.50;22.20;;;5.20;99.90;;;;;;6268596;22;20031;-58
2022/03/22 01:13:21;;;;;;;38.22;21.17;;;5.20;99.90;;;;;;6267822;22;20020;-57
2022/03/22 01:15:47;;;;;;;33.65;20.80;;;5.20;99.90;;;;;;6268024;22;20502;-57
2022/03/22 01:18:13;;;;;;;36.65;21.77;;;5.20;99.90;;;;;;6268455;22;20531;-59
2022/03/22 01:20:47;;;;;;;33.40;21.42;;;5.10;99.90;;;;;;6268142;22;20462;-67
2022/03/22 01:23:14;;;;;;;38.63;22.02;;;5.20;99.90;;;;;;6268418;22;20102;-58
2022/03/22 01:25:43;;;;;;;36.38;22.23;;;5.10;99.90;;;;;;6268052;22;20027;-61
2022/03/22 01:28:12;;;;;;;34.20;21.52;;;5.10;99.90;;;;;;6267438;22;20073;-61
2022/03/22 01:30:38;;;;;;;33.03;21.05;;;5.10;99.90;;;;;;6267925;22;20024;-57
2022/03/22 01:33:05;;;;;;;33.95;21.38;;;5.00;99.90;;;;;;6216492;22;20023;-63
2022/03/22 01:35:32;;;;;;;36.45;22.85;;;5.00;99.90;;;;;;6268306;22;20046;-66
2022/03/22 01:37:58;;;;;;;33.70;21.55;;;5.00;99.90;;;;;;6269189;22;20390;-56
2022/03/22 01:40:26;;;;;;;35.83;21.88;;;5.00;99.90;;;;;;6241173;22;20059;-57
2022/03/22 01:42:53;;;;;;;35.33;22.70;;;5.00;99.90;;;;;;6269603;22;20020;-57
2022/03/22 01:45:19;;;;;;;37.92;22.98;;;5.00;99.90;;;;;;6269311;22;20082;-59
2022/03/22 01:47:46;;;;;;;35.58;23.50;;;5.00;99.90;;;;;;6241502;22;20342;-59
2022/03/22 01:50:15;;;;;;;36.58;22.75;;;5.00;99.90;;;;;;6269315;22;20278;-60
2022/03/22 01:52:43;;;;;;;34.30;21.77;;;5.00;99.90;;;;;;6268624;22;20437;-56
2022/03/22 01:55:11;;;;;;;33.20;22.30;;;4.90;99.90;;;;;;6268594;22;20022;-57
2022/03/22 01:57:37;;;;;;;37.63;22.50;;;4.90;99.90;;;;;;6268783;22;20066;-57
2022/03/22 02:00:06;;;;;;;36.83;23.00;;;4.90;99.90;;;;;;6269086;22;20026;-58
2022/03/22 02:08:05;;;;;;;38.53;23.40;;;4.80;99.90;;;;;;6268682;22;20023;-59
2022/03/22 02:10:31;;;;;;;34.90;22.23;;;4.80;99.90;;;;;;6268329;22;20027;-60
2022/03/22 02:12:57;;;;;;;35.90;21.08;;;4.80;99.90;;;;;;6268566;22;20049;-68
2022/03/22 02:15:23;;;;;;;34.92;22.83;;;4.80;99.90;;;;;;6269027;22;20027;-64
2022/03/22 02:17:50;;;;;;;40.95;23.00;;;4.80;99.90;;;;;;6267562;22;20051;-59
2022/03/22 02:20:16;;;;;;;34.55;21.45;;;4.80;99.90;;;;;;6265904;22;20093;-69
2022/03/22 02:23:05;;;;;;;35.35;22.50;;;4.70;99.90;;;;;;6268290;22;20023;-67
2022/03/22 02:25:35;;;;;;;36.03;23.13;;;4.70;99.90;;;;;;6250738;22;20081;-71
2022/03/22 02:28:03;;;;;;;33.72;21.90;;;4.70;99.90;;;;;;6267764;22;20024;-69
2022/03/22 02:30:29;;;;;;;31.27;21.40;;;4.70;99.90;;;;;;6240135;22;20024;-69
2022/03/22 02:32:59;;;;;;;35.85;22.52;;;4.70;99.90;;;;;;6268713;22;20011;-66
2022/03/22 02:35:25;;;;;;;34.47;21.48;;;4.70;99.90;;;;;;6263507;22;20019;-58
2022/03/22 02:37:51;;;;;;;32.88;21.17;;;4.60;99.90;;;;;;6268355;22;20027;-72
2022/03/22 02:40:18;;;;;;;35.90;22.27;;;4.70;99.90;;;;;;6240152;22;20015;-64
2022/03/22 02:42:50;;;;;;;33.63;21.52;;;4.60;99.90;;;;;;6267456;22;20016;-60
2022/03/22 02:45:19;;;;;;;38.88;22.42;;;4.60;99.90;;;;;;6239528;22;20090;-68
2022/03/22 02:47:45;;;;;;;37.83;22.55;;;4.60;99.90;;;;;;6267214;22;20020;-67
2022/03/22 02:50:11;;;;;;;34.17;22.20;;;4.60;99.90;;;;;;6266386;22;20458;-72
2022/03/22 02:52:38;;;;;;;32.72;20.67;;;4.60;99.90;;;;;;6266577;22;20027;-70
2022/03/22 02:55:06;;;;;;;35.83;23.27;;;4.60;99.90;;;;;;6267617;22;20077;-68
2022/03/22 02:57:33;;;;;;;39.63;24.42;;;4.60;99.90;;;;;;6267258;22;20145;-74
2022/03/22 02:59:58;;;;;;;35.15;20.90;;;3.00;99.90;;;;;;6267270;22;20603;-59
2022/03/22 03:02:24;;;;;;;36.03;20.70;;;4.60;99.90;;;;;;6267511;22;20015;-64
2022/03/22 03:04:50;;;;;;;33.05;22.48;;;4.50;99.90;;;;;;6267927;22;20089;-72
2022/03/22 03:07:15;;;;;;;39.10;23.70;;;4.50;99.90;;;;;;6267037;22;20334;-70
2022/03/22 03:09:41;;;;;;;37.63;23.27;;;4.50;99.90;;;;;;6267497;22;20086;-70
2022/03/22 03:12:07;;;;;;;35.63;22.77;;;4.50;99.90;;;;;;6267329;22;20034;-63
2022/03/22 03:14:39;;;;;;;38.60;21.83;;;4.50;99.90;;;;;;6240046;22;20023;-61
2022/03/22 03:17:05;;;;;;;36.97;23.17;;;4.50;99.90;;;;;;6240274;22;20024;-69
2022/03/22 03:19:31;;;;;;;36.65;24.30;;;4.50;99.90;;;;;;6267145;22;20023;-67
2022/03/22 03:21:57;;;;;;;36.58;23.92;;;4.40;99.90;;;;;;6267387;22;20020;-62
2022/03/22 03:24:23;;;;;;;37.50;21.65;;;4.40;99.90;;;;;;6267355;22;20047;-70
2022/03/22 03:26:49;;;;;;;38.60;23.88;;;4.40;99.90;;;;;;6238913;22;20023;-65
2022/03/22 03:29:15;;;;;;;37.22;23.23;;;4.40;99.90;;;;;;6239327;22;20028;-66
2022/03/22 03:31:41;;;;;;;34.92;23.17;;;4.30;99.90;;;;;;6267262;22;20437;-66
2022/03/22 03:34:07;;;;;;;37.47;22.70;;;4.40;99.90;;;;;;6267145;22;20019;-58
2022/03/22 03:36:33;;;;;;;35.03;21.50;;;4.30;99.90;;;;;;6267183;22;20338;-66
2022/03/22 03:38:59;;;;;;;39.40;22.33;;;4.30;99.90;;;;;;6267195;22;20263;-65
2022/03/22 03:47:07;;;;;;;40.85;23.10;;;4.20;99.90;;;;;;6267469;22;20020;-64
2022/03/22 03:49:54;;;;;;;33.10;20.75;;;4.20;99.90;;;;;;6267395;22;20043;-61
2022/03/22 03:52:22;;;;;;;35.00;22.90;;;4.20;99.90;;;;;;6218949;22;20016;-62
2022/03/22 03:54:48;;;;;;;34.60;23.65;;;4.20;99.90;;;;;;6239346;22;20016;-57
2022/03/22 03:57:15;;;;;;;40.92;23.27;;;4.20;99.90;;;;;;6266370;22;20539;-57
2022/03/22 03:59:41;;;;;;;35.70;22.15;;;4.20;99.90;;;;;;6266506;22;20019;-56
2022/03/22 04:02:08;;;;;;;35.45;21.45;;;4.10;99.90;;;;;;6266959;22;20503;-57
2022/03/22 04:04:35;;;;;;;40.10;23.60;;;4.20;99.90;;;;;;6266628;22;20374;-58
2022/03/22 04:07:02;;;;;;;41.97;25.10;;;4.10;99.90;;;;;;6266118;22;20522;-57
2022/03/22 04:09:28;;;;;;;40.95;23.45;;;4.10;99.90;;;;;;6267368;22;20369;-57
2022/03/22 04:11:54;;;;;;;35.80;21.83;;;4.10;99.90;;;;;;6239387;22;20030;-57
2022/03/22 04:14:19;;;;;;;38.42;23.65;;;4.20;99.90;;;;;;6267306;22;20019;-58
2022/03/22 04:16:46;;;;;;;42.55;25.73;;;4.10;99.90;;;;;;6266425;22;20023;-57
2022/03/22 04:19:12;;;;;;;40.60;25.25;;;4.10;99.90;;;;;;6266614;22;20512;-59
2022/03/22 04:21:39;;;;;;;37.45;23.83;;;4.10;99.90;;;;;;6266637;22;20019;-61
2022/03/22 04:24:07;;;;;;;36.97;24.23;;;4.10;99.90;;;;;;6266504;22;20095;-63
2022/03/22 04:26:41;;;;;;;36.28;22.63;;;5.00;99.90;;;;;;6265985;22;20019;-59
2022/03/22 04:34:40;;;;;;;36.63;23.20;;;4.00;99.90;;;;;;6266766;22;20394;-74
2022/03/22 04:37:07;;;;;;;39.00;23.33;;;4.00;99.90;;;;;;6267643;22;20023;-74
2022/03/22 04:39:34;;;;;;;40.17;25.35;;;3.90;99.90;;;;;;6261876;22;20500;-65
2022/03/22 04:42:00;;;;;;;39.17;23.58;;;4.00;99.90;;;;;;6238103;22;20020;-72
2022/03/22 04:44:29;;;;;;;43.58;24.83;;;3.90;99.90;;;;;;6266321;22;20334;-76
2022/03/22 04:46:58;;;;;;;38.70;22.92;;;3.90;99.90;;;;;;6238577;22;20103;-69
2022/03/22 04:49:26;;;;;;;40.95;23.73;;;3.90;99.90;;;;;;6266323;22;20016;-68
2022/03/22 04:57:22;;;;;;;40.08;23.65;;;3.80;99.90;;;;;;6238288;22;20030;-62
2022/03/22 04:59:48;;;;;;;45.25;24.92;;;3.80;99.90;;;;;;6266097;22;20051;-73
2022/03/22 05:02:15;;;;;;;38.25;22.80;;;3.60;99.90;;;;;;6266544;22;20022;-67
2022/03/22 05:04:41;;;;;;;40.67;22.77;;;3.80;99.90;;;;;;6265891;22;20019;-72
2022/03/22 05:07:07;;;;;;;39.80;25.30;;;3.80;99.90;;;;;;6266190;22;20020;-65
2022/03/22 05:09:33;;;;;;;43.40;24.35;;;3.80;99.90;;;;;;6266235;22;20031;-65
2022/03/22 05:11:59;;;;;;;39.13;23.83;;;3.80;99.90;;;;;;6266395;22;20020;-63
2022/03/22 05:14:26;;;;;;;35.85;22.90;;;3.80;99.90;;;;;;6266596;22;20019;-66
2022/03/22 05:16:51;;;;;;;37.15;24.13;;;3.70;99.90;;;;;;6265656;22;20026;-72
2022/03/22 05:19:18;;;;;;;41.97;24.23;;;3.70;99.90;;;;;;6264501;22;20020;-66
2022/03/22 05:21:45;;;;;;;38.38;23.98;;;3.70;99.90;;;;;;6264273;22;20319;-76
2022/03/22 05:24:11;;;;;;;46.40;24.50;;;3.70;99.90;;;;;;6264864;22;20022;-57
2022/03/22 05:26:37;;;;;;;43.15;23.73;;;3.70;99.90;;;;;;6237431;22;20024;-57
2022/03/22 05:29:04;;;;;;;36.35;23.02;;;3.70;99.90;;;;;;6265042;22;20026;-57
2022/03/22 05:31:31;;;;;;;40.95;24.92;;;3.70;99.90;;;;;;6264972;22;20024;-57
2022/03/22 05:33:58;;;;;;;42.40;23.48;;;3.70;99.90;;;;;;6239237;22;20024;-57
2022/03/22 05:36:24;;;;;;;37.55;22.63;;;3.70;99.90;;;;;;6266955;22;20016;-57
2022/03/22 05:38:50;;;;;;;39.88;23.83;;;3.60;99.90;;;;;;6266276;22;20334;-57
2022/03/22 05:41:16;;;;;;;40.00;23.75;;;3.60;99.90;;;;;;6265744;22;20126;-57
2022/03/22 05:43:42;;;;;;;38.13;23.95;;;3.60;99.90;;;;;;6265579;22;20090;-56
2022/03/22 05:46:09;;;;;;;37.90;24.23;;;3.60;99.90;;;;;;6266085;22;20570;-66
2022/03/22 05:48:38;;;;;;;42.47;22.45;;;3.60;99.90;;;;;;6266721;22;20446;-57
2022/03/22 05:51:04;;;;;;;43.42;24.95;;;3.70;99.90;;;;;;6266491;22;20015;-60
2022/03/22 05:53:30;;;;;;;38.92;24.23;;;3.70;99.90;;;;;;6238872;22;20432;-69
2022/03/22 05:55:56;;;;;;;36.92;22.60;;;3.70;99.90;;;;;;6268255;22;20094;-60
2022/03/22 05:58:22;;;;;;;40.53;24.20;;;3.70;99.90;;;;;;6268273;22;20037;-65
2022/03/22 06:00:48;;;;;;;34.72;22.48;;;3.70;99.90;;;;;;6268072;22;20464;-70
2022/03/22 06:03:14;;;;;;;38.65;24.23;;;3.80;99.90;;;;;;6268016;22;20484;-57
2022/03/22 06:05:40;;;;;;;44.67;23.92;;;3.80;99.90;;;;;;6261920;22;20403;-62
2022/03/22 06:08:06;;;;;;;38.35;23.13;;;3.80;99.90;;;;;;6267052;22;20384;-57
2022/03/22 06:10:32;;;;;;;39.22;21.83;;;3.80;99.90;;;;;;6238544;22;20346;-58
2022/03/22 06:12:59;;;;;;;38.97;22.15;;;3.80;99.90;;;;;;6267024;22;20057;-58
2022/03/22 06:15:29;;;;;;;37.60;23.40;;;3.90;99.90;;;;;;6238578;22;20339;-59
2022/03/22 06:18:00;;;;;;;38.53;23.17;;;3.90;99.90;;;;;;6266912;22;20512;-59
2022/03/22 06:20:31;;;;;;;40.70;23.48;;;3.90;99.90;;;;;;6265920;22;20078;-60
2022/03/22 06:22:57;;;;;;;42.30;24.55;;;4.00;99.90;;;;;;6266692;22;20395;-57
2022/03/22 06:25:23;;;;;;;42.55;25.33;;;4.10;99.90;;;;;;6262522;22;20069;-66
2022/03/22 06:27:51;;;;;;;39.88;23.58;;;4.10;99.90;;;;;;6265745;22;20369;-71
2022/03/22 06:30:18;;;;;;;38.25;24.10;;;4.20;99.90;;;;;;6265777;22;20019;-73
2022/03/22 06:32:53;;;;;;;35.10;23.52;;;4.20;99.90;;;;;;6266952;22;20530;-74
2022/03/22 06:35:24;;;;;;;47.55;25.33;;;4.30;99.90;;;;;;6265597;22;20016;-67
2022/03/22 06:37:51;;;;;;;37.40;22.88;;;4.40;99.90;;;;;;6266939;22;20094;-74
2022/03/22 06:40:19;;;;;;;37.55;24.25;;;4.40;99.90;;;;;;6237984;22;20354;-58
2022/03/22 06:42:46;;;;;;;38.10;23.17;;;4.50;99.90;;;;;;6266887;22;20018;-57
2022/03/22 06:45:12;;;;;;;37.17;22.83;;;4.60;99.90;;;;;;6265591;22;20051;-57
2022/03/22 06:47:39;;;;;;;36.35;23.08;;;4.70;99.90;;;;;;6266500;22;20055;-58
2022/03/22 06:50:06;;;;;;;38.40;22.92;;;4.80;99.90;;;;;;6267466;22;20024;-57
2022/03/22 06:52:32;;;;;;;37.88;21.48;;;4.90;99.90;;;;;;6267752;22;20018;-59
2022/03/22 06:54:58;;;;;;;35.60;21.98;;;5.00;99.90;;;;;;6265150;22;20126;-57
2022/03/22 06:57:24;;;;;;;42.50;23.63;;;5.20;99.90;;;;;;6266638;22;20030;-57
2022/03/22 06:59:50;;;;;;;40.60;24.25;;;5.30;99.90;;;;;;6267786;22;20020;-57
2022/03/22 07:02:18;;;;;;;37.17;22.83;;;5.40;99.90;;;;;;6266515;22;20061;-56
2022/03/22 07:04:44;;;;;;;35.95;22.20;;;5.60;99.90;;;;;;6267514;22;20438;-57
2022/03/22 07:07:10;;;;;;;34.83;22.00;;;5.70;99.90;;;;;;6239458;22;20030;-57
2022/03/22 07:09:36;;;;;;;40.83;24.52;;;5.80;99.90;;;;;;6267097;22;20016;-57
2022/03/22 07:12:01;;;;;;;37.08;21.75;;;6.10;99.90;;;;;;6267571;22;20077;-57
2022/03/22 07:14:28;;;;;;;32.25;22.27;;;6.30;99.90;;;;;;6266403;22;20031;-57
2022/03/22 07:16:57;;;;;;;38.10;23.05;;;6.50;99.90;;;;;;6266897;22;20381;-57
2022/03/22 07:19:23;;;;;;;37.90;23.92;;;6.70;99.90;;;;;;6268844;22;20030;-56
2022/03/22 07:21:50;;;;;;;35.38;22.33;;;7.00;99.90;;;;;;6267371;22;20020;-57
2022/03/22 07:24:20;;;;;;;36.28;22.95;;;7.20;99.90;;;;;;6268051;22;20019;-57
2022/03/22 07:26:46;;;;;;;39.45;23.15;;;7.50;99.90;;;;;;6267455;22;20445;-57
2022/03/22 07:29:13;;;;;;;43.58;24.60;;;7.70;99.90;;;;;;6267797;22;20028;-57
2022/03/22 07:31:39;;;;;;;42.85;24.15;;;8.00;99.90;;;;;;6267098;22;20441;-56
2022/03/22 07:34:06;;;;;;;36.28;23.08;;;8.30;99.90;;;;;;6267620;22;20015;-57
2022/03/22 07:36:35;;;;;;;40.83;24.30;;;8.60;99.90;;;;;;6266761;22;20024;-59
2022/03/22 07:39:02;;;;;;;40.33;24.08;;;8.80;99.90;;;;;;6267206;22;20022;-57
2022/03/22 07:41:28;;;;;;;36.85;23.02;;;9.10;99.90;;;;;;6267252;22;20030;-57
2022/03/22 07:43:54;;;;;;;40.55;26.20;;;9.30;99.90;;;;;;6267239;22;20011;-57
2022/03/22 07:46:23;;;;;;;37.20;22.80;;;9.50;99.90;;;;;;6267342;22;20024;-57
2022/03/22 07:48:50;;;;;;;37.90;22.55;;;9.70;99.90;;;;;;6261846;22;20011;-57
2022/03/22 07:54:01;;;;;;;34.42;22.52;;;10.10;99.90;;;;;;6267025;22;20035;-57
2022/03/22 07:56:27;;;;;;;41.92;24.15;;;10.40;99.90;;;;;;6267517;22;20024;-57
2022/03/22 07:58:53;;;;;;;33.10;21.15;;;10.60;99.90;;;;;;6267013;22;20026;-57
2022/03/22 08:01:18;;;;;;;33.58;21.73;;;10.80;99.90;;;;;;6266751;22;20238;-65
2022/03/22 08:03:45;;;;;;;33.10;21.83;;;11.00;99.90;;;;;;6265556;22;20012;-68
2022/03/22 08:06:10;;;;;;;29.80;20.05;;;11.30;99.90;;;;;;6238907;22;20446;-67
2022/03/22 08:08:43;;;;;;;29.55;20.52;;;11.50;99.90;;;;;;6239815;22;20049;-72
2022/03/22 08:11:09;;;;;;;34.22;21.92;;;11.80;99.90;;;;;;6266915;22;20022;-65
2022/03/22 08:13:36;;;;;;;29.02;20.48;;;12.00;99.90;;;;;;6266946;22;20379;-70
2022/03/22 08:16:04;;;;;;;33.97;21.95;;;12.20;99.90;;;;;;6234917;22;20028;-71
2022/03/22 08:18:29;;;;;;;32.85;21.35;;;12.50;99.90;;;;;;6265797;22;20409;-72
2022/03/22 08:20:56;;;;;;;31.52;21.48;;;12.60;99.90;;;;;;6265772;22;20099;-69
2022/03/22 08:23:22;;;;;;;31.58;22.17;;;12.80;99.90;;;;;;6265403;22;20018;-65
2022/03/22 08:25:50;;;;;;;32.90;21.92;;;13.10;99.90;;;;;;6263964;22;20031;-63
2022/03/22 08:28:17;;;;;;;34.30;21.63;;;13.50;99.90;;;;;;6262773;22;20410;-68
2022/03/22 08:30:44;;;;;;;29.90;21.63;;;13.70;99.90;;;;;;6262477;22;20028;-65
2022/03/22 08:33:11;;;;;;;29.05;21.05;;;13.90;99.90;;;;;;6262038;22;20462;-68
2022/03/22 08:35:48;;;;;;;32.85;20.50;;;14.20;99.90;;;;;;6262494;22;20016;-67
2022/03/22 08:38:15;;;;;;;34.08;20.50;;;14.40;99.90;;;;;;6234682;22;20020;-68
2022/03/22 08:40:41;;;;;;;34.03;21.40;;;14.80;99.90;;;;;;6262161;22;20104;-68
2022/03/22 08:43:08;;;;;;;29.73;20.40;;;15.00;99.90;;;;;;6262800;22;20019;-57
2022/03/22 08:45:34;;;;;;;29.23;20.70;;;15.20;99.90;;;;;;6260436;22;20079;-56
2022/03/22 08:48:02;;;;;;;33.50;21.05;;;15.40;99.90;;;;;;6262028;22;20450;-58
2022/03/22 08:50:28;;;;;;;29.38;19.42;;;15.70;99.90;;;;;;6262411;22;20353;-57
2022/03/22 08:52:57;;;;;;;29.48;19.38;;;15.90;99.90;;;;;;6262666;22;20011;-56
2022/03/22 08:55:24;;;;;;;29.27;19.20;;;16.20;99.90;;;;;;6262795;22;20028;-57
2022/03/22 08:57:52;;;;;;;26.30;18.08;;;16.60;99.90;;;;;;6262675;22;20019;-57
2022/03/22 09:00:19;;;;;;;28.60;19.77;;;17.00;99.90;;;;;;6262027;22;20039;-57
2022/03/22 09:02:48;;;;;;;26.25;19.20;;;17.30;99.90;;;;;;6261632;22;20020;-57
2022/03/22 09:08:01;;;;;;;27.50;19.58;;;17.80;99.90;;;;;;6263304;22;20386;-57
2022/03/22 09:10:27;;;;;;;27.58;18.80;;;18.40;99.90;;;;;;6263622;22;20023;-58
2022/03/22 09:12:54;;;;;;;27.73;19.15;;;18.70;99.90;;;;;;6263144;22;20019;-59
2022/03/22 09:15:22;;;;;;;24.55;17.85;;;18.60;99.90;;;;;;6262118;22;20023;-58
2022/03/22 09:17:49;;;;;;;24.67;17.25;;;19.10;99.90;;;;;;6262610;22;20055;-58
2022/03/22 09:20:15;;;;;;;26.25;17.95;;;19.30;99.90;;;;;;6262156;22;20089;-59
2022/03/22 09:22:43;;;;;;;31.15;17.92;;;19.70;99.90;;;;;;6262872;22;20020;-59
2022/03/22 09:25:12;;;;;;;25.55;18.13;;;19.50;99.90;;;;;;6262208;22;20377;-59
2022/03/22 09:27:39;;;;;;;25.58;18.98;;;20.10;99.30;;;;;;6263596;22;20118;-57
2022/03/22 09:30:05;;;;;;;31.70;20.17;;;20.40;98.70;;;;;;6237078;22;20085;-57
2022/03/22 09:32:31;;;;;;;22.30;17.33;;;20.80;97.70;;;;;;6262958;22;20085;-57
2022/03/22 09:34:59;;;;;;;29.00;18.00;;;20.90;97.30;;;;;;6264731;22;20438;-59
2022/03/22 09:37:26;;;;;;;24.90;16.98;;;20.80;96.50;;;;;;6264535;22;20070;-57
2022/03/22 09:39:52;;;;;;;23.85;17.67;;;21.10;96.30;;;;;;6237136;22;20911;-59
2022/03/22 09:42:17;;;;;;;22.67;16.65;;;21.50;96.30;;;;;;6264211;22;20344;-59
2022/03/22 09:44:51;;;;;;;21.80;16.85;;;21.80;96.00;;;;;;6236900;22;20027;-58
2022/03/22 09:47:17;;;;;;;21.55;15.90;;;22.00;94.70;;;;;;6263859;22;20145;-57
2022/03/22 09:49:44;;;;;;;27.77;19.27;;;21.90;95.60;;;;;;6264708;22;20465;-57
2022/03/22 09:52:10;;;;;;;21.73;16.27;;;22.20;95.00;;;;;;6263817;22;20016;-58
2022/03/22 09:54:38;;;;;;;28.63;17.73;;;22.70;94.60;;;;;;6263649;22;20020;-57
2022/03/22 09:57:05;;;;;;;24.60;18.25;;;23.00;94.20;;;;;;6236134;22;20023;-57
2022/03/22 09:59:34;;;;;;;22.88;17.58;;;23.10;93.60;;;;;;6261119;22;20016;-59
2022/03/22 10:02:01;;;;;;;23.92;16.05;;;23.10;93.40;;;;;;6263685;22;20094;-58
2022/03/22 10:04:40;;;;;;;24.27;17.67;;;22.80;93.70;;;;;;6260303;22;20470;-57
2022/03/22 10:07:07;;;;;;;23.15;17.65;;;23.10;92.10;;;;;;6261859;22;20027;-56
2022/03/22 10:09:39;;;;;;;21.58;16.30;;;23.50;93.20;;;;;;6264468;22;20026;-57
2022/03/22 10:12:10;;;;;;;21.30;15.63;;;23.70;92.80;;;;;;6263705;22;20125;-57
2022/03/22 10:14:41;;;;;;;23.40;17.25;;;23.40;92.50;;;;;;6264387;22;20012;-57
2022/03/22 10:17:20;;;;;;;26.05;16.23;;;23.60;91.40;;;;;;6262976;22;20019;-57
2022/03/22 10:19:51;;;;;;;20.38;15.68;;;23.90;91.20;;;;;;6263706;22;20015;-57
2022/03/22 10:22:23;;;;;;;19.77;15.10;;;24.00;91.50;;;;;;6263766;22;20027;-57
2022/03/22 10:24:57;;;;;;;22.73;16.48;;;24.30;91.00;;;;;;6263119;22;20016;-56
2022/03/22 10:27:27;;;;;;;22.65;17.17;;;24.40;90.50;;;;;;6262435;22;20034;-57
2022/03/22 10:29:57;;;;;;;22.25;15.32;;;23.90;91.20;;;;;;6263055;22;20026;-57
2022/03/22 10:32:30;;;;;;;21.25;15.57;;;24.50;90.90;;;;;;6262969;22;20034;-57
2022/03/22 10:34:56;;;;;;;21.60;16.17;;;24.70;90.00;;;;;;6263504;22;20437;-57
2022/03/22 10:37:26;;;;;;;18.58;14.98;;;24.50;91.00;;;;;;6262737;22;20515;-57
2022/03/22 10:39:52;;;;;;;21.33;15.68;;;24.50;90.30;;;;;;6263203;22;20129;-57
2022/03/22 10:42:22;;;;;;;21.42;15.48;;;24.70;90.60;;;;;;6264108;22;20087;-57
2022/03/22 10:44:50;;;;;;;24.58;15.57;;;25.00;87.60;;;;;;6263679;22;20023;-57
2022/03/22 10:47:25;;;;;;;26.15;17.73;;;24.90;90.00;;;;;;6263545;22;20174;-57
2022/03/22 10:50:07;;;;;;;21.42;16.17;;;24.80;88.10;;;;;;6263414;22;20091;-57
2022/03/22 10:52:33;;;;;;;21.13;17.60;;;25.00;86.00;;;;;;6263357;22;20473;-57
2022/03/22 10:54:59;;;;;;;22.02;15.68;;;25.00;88.70;;;;;;6263381;22;20015;-56
2022/03/22 10:57:37;;;;;;;19.70;15.65;;;25.00;88.70;;;;;;6264375;22;20024;-57
2022/03/22 11:00:08;;;;;;;21.30;15.50;;;25.30;88.20;;;;;;6264031;22;20019;-56
2022/03/22 11:02:37;;;;;;;24.88;16.98;;;25.50;87.50;;;;;;6263934;22;20023;-57
2022/03/22 11:05:04;;;;;;;23.98;17.02;;;25.30;86.20;;;;;;6264495;22;20069;-58
2022/03/22 11:07:39;;;;;;;25.65;18.85;;;25.60;87.90;;;;;;6264760;22;20065;-57
2022/03/22 11:10:06;;;;;;;25.58;19.33;;;25.80;86.00;;;;;;6262554;22;20024;-57
2022/03/22 11:12:33;;;;;;;27.30;21.25;;;25.80;87.40;;;;;;6263123;22;20015;-57
2022/03/22 11:15:00;;;;;;;26.02;18.98;;;25.90;86.80;;;;;;6263100;22;20451;-57
2022/03/22 11:17:33;;;;;;;24.80;17.90;;;26.20;85.70;;;;;;6263996;22;20480;-57
2022/03/22 11:19:59;;;;;;;23.60;17.30;;;26.00;84.50;;;;;;6263734;22;20308;-58
2022/03/22 11:22:25;;;;;;;24.88;17.52;;;26.20;85.40;;;;;;6264878;22;20034;-57
2022/03/22 11:24:52;;;;;;;21.23;16.75;;;26.30;84.70;;;;;;6263200;22;20422;-57
2022/03/22 11:27:28;;;;;;;25.20;17.08;;;26.20;85.20;;;;;;6262601;22;20030;-57
2022/03/22 11:29:55;;;;;;;25.88;17.15;;;25.90;83.80;;;;;;6236234;22;20023;-57
2022/03/22 11:35:13;;;;;;;23.98;16.90;;;26.60;84.30;;;;;;6263554;22;20066;-57
2022/03/22 11:37:40;;;;;;;29.90;17.85;;;26.80;82.50;;;;;;6263720;22;20105;-57
2022/03/22 11:43:01;;;;;;;22.02;15.20;;;26.90;81.50;;;;;;6263272;22;20023;-57
2022/03/22 11:45:27;;;;;;;20.50;15.98;;;27.10;83.20;;;;;;6262246;22;20501;-57
2022/03/22 11:47:54;;;;;;;25.88;17.65;;;27.30;82.90;;;;;;6262324;22;20111;-58
2022/03/22 11:50:22;;;;;;;24.40;18.35;;;27.50;82.10;;;;;;6263135;22;20019;-59
2022/03/22 11:52:54;;;;;;;28.13;18.38;;;27.30;82.20;;;;;;6262735;22;20027;-60
2022/03/22 11:55:22;;;;;;;21.20;15.93;;;27.50;82.00;;;;;;6263318;22;20054;-58
2022/03/22 11:57:47;;;;;;;24.70;18.20;;;27.50;82.40;;;;;;6235840;22;20043;-60
2022/03/22 12:00:16;;;;;;;24.17;16.52;;;27.50;82.10;;;;;;6263275;22;20024;-58
2022/03/22 12:02:44;;;;;;;20.05;15.35;;;27.70;81.20;;;;;;6263047;22;20030;-58
2022/03/22 12:05:10;;;;;;;24.17;17.40;;;27.90;81.30;;;;;;6262454;22;20023;-60
2022/03/22 12:07:39;;;;;;;24.63;16.95;;;27.60;81.20;;;;;;6263722;22;20016;-63
2022/03/22 12:10:06;;;;;;;20.50;16.38;;;28.10;80.90;;;;;;6260116;22;20323;-62
2022/03/22 12:12:33;;;;;;;21.45;15.88;;;28.20;80.60;;;;;;6263869;22;20104;-61
2022/03/22 12:15:00;;;;;;;23.60;17.25;;;28.60;80.00;;;;;;6262957;22;20320;-61
2022/03/22 12:17:27;;;;;;;21.60;15.73;;;28.90;78.80;;;;;;6263739;22;20351;-60
2022/03/22 12:19:58;;;;;;;24.13;16.30;;;29.10;79.10;;;;;;6262422;22;20371;-63
2022/03/22 12:22:25;;;;;;;20.88;16.27;;;29.40;77.50;;;;;;6261258;22;20046;-62
2022/03/22 12:24:51;;;;;;;25.90;17.40;;;29.60;78.50;;;;;;6263214;22;20051;-61
2022/03/22 12:27:17;;;;;;;24.42;16.48;;;30.40;77.90;;;;;;6262380;22;20575;-63
2022/03/22 12:29:45;;;;;;;24.13;18.00;;;30.80;76.80;;;;;;6263084;22;20036;-64
2022/03/22 12:32:16;;;;;;;25.77;17.42;;;32.60;75.80;;;;;;6262904;22;20020;-62
2022/03/22 12:34:43;;;;;;;25.35;18.40;;;34.00;73.00;;;;;;6260127;22;20027;-58
2022/03/22 12:37:09;;;;;;;23.63;16.38;;;35.90;71.60;;;;;;6261405;22;20078;-62
2022/03/22 12:39:37;;;;;;;23.77;17.13;;;36.70;70.10;;;;;;6263462;22;20015;-60
2022/03/22 12:42:05;;;;;;;21.33;16.55;;;37.10;67.50;;;;;;6263400;22;20024;-63
2022/03/22 12:44:31;;;;;;;33.63;22.35;;;37.30;66.00;;;;;;6259869;22;20073;-64
2022/03/22 12:46:57;;;;;;;25.50;18.73;;;37.80;64.20;;;;;;6263082;22;20525;-58
2022/03/22 12:49:24;;;;;;;28.85;21.58;;;38.40;63.80;;;;;;6262415;22;20797;-58
2022/03/22 12:51:50;;;;;;;28.13;19.58;;;39.00;61.90;;;;;;6263679;22;20522;-58
2022/03/22 12:54:17;;;;;;;26.00;18.92;;;39.10;61.20;;;;;;6263088;22;20026;-58
2022/03/22 12:56:50;;;;;;;26.27;17.25;;;39.50;59.50;;;;;;6262477;22;20327;-58
2022/03/22 12:59:20;;;;;;;26.73;16.07;;;37.60;58.00;;;;;;6262862;22;20012;-58
2022/03/22 13:01:51;;;;;;;25.88;18.17;;;38.70;58.30;;;;;;6236115;22;20321;-58
2022/03/22 13:04:22;;;;;;;20.35;15.55;;;38.70;57.60;;;;;;6264641;22;20117;-65
2022/03/22 13:06:49;;;;;;;21.10;15.02;;;38.40;57.00;;;;;;6264472;22;20490;-61